createdAt,value
2023-03-23T15:58:43.250Z,99662.78
2023-03-23T16:01:48.557Z,99662.31
2023-03-23T16:04:51.943Z,99670.41
2023-03-23T16:07:54.755Z,99673.72
2023-03-23T16:10:57.742Z,99669.38
2023-03-23T16:14:00.748Z,99667.50
2023-03-23T16:17:03.859Z,99675.44
2023-03-23T16:20:17.986Z,99678.31
2023-03-23T16:23:21.177Z,99675.53
2023-03-23T16:26:24.179Z,99677.19
2023-03-23T16:29:43.403Z,99681.28
2023-03-23T16:32:51.182Z,99673.69
2023-03-23T16:35:54.541Z,99684.59
2023-03-23T16:38:57.103Z,99675.75
2023-03-23T16:42:00.104Z,99691.69
2023-03-23T16:45:02.715Z,99701.91
2023-03-23T16:48:07.032Z,99704.37
2023-03-23T16:51:09.603Z,99702.94
2023-03-23T16:54:12.493Z,99707.00
2023-03-23T16:57:15.453Z,99702.53
2023-03-23T17:00:23.086Z,99701.53
2023-03-23T17:03:26.092Z,99698.88
2023-03-23T17:06:32.079Z,99706.19
2023-03-23T17:09:34.695Z,99702.50
2023-03-23T17:12:37.903Z,99709.09
2023-03-23T17:15:43.828Z,99704.56
2023-03-23T17:18:48.884Z,99704.75
2023-03-23T17:21:51.729Z,99712.37
2023-03-23T17:24:54.744Z,99714.62
2023-03-23T17:27:58.133Z,99711.91
2023-03-23T17:31:10.084Z,99708.91
2023-03-23T17:34:12.793Z,99713.81
2023-03-23T17:37:15.880Z,99717.09
2023-03-23T17:40:18.735Z,99720.72
2023-03-23T17:43:21.539Z,99725.41
2023-03-23T17:46:24.903Z,99732.69
2023-03-23T17:49:30.351Z,99736.78
2023-03-23T17:52:32.929Z,99731.53
2023-03-23T17:55:36.246Z,99724.69
2023-03-23T17:58:39.293Z,99725.75
2023-03-23T18:01:42.176Z,99732.59
2023-03-23T18:04:46.561Z,99738.38
2023-03-23T18:07:49.161Z,99735.91
2023-03-23T18:10:52.452Z,99744.94
2023-03-23T18:13:55.267Z,99750.63
2023-03-23T18:16:58.281Z,99759.94
2023-03-23T18:20:01.500Z,99745.53
2023-03-23T18:23:07.023Z,99750.63
2023-03-23T18:26:12.110Z,99757.53
2023-03-23T18:29:15.410Z,99760.47
2023-03-23T18:32:19.730Z,99754.19
2023-03-23T18:35:23.553Z,99765.44
2023-03-23T18:38:29.976Z,99760.00
2023-03-23T18:41:33.137Z,99763.69
2023-03-23T18:44:36.548Z,99770.97
2023-03-23T18:47:40.563Z,99765.72
2023-03-23T18:50:51.439Z,99759.06
2023-03-23T18:53:55.046Z,99767.09
2023-03-23T18:57:00.214Z,99761.34
2023-03-23T19:00:04.906Z,99772.75
2023-03-23T19:03:09.773Z,99761.88
2023-03-23T19:06:22.650Z,99758.66
2023-03-23T19:09:25.864Z,99762.34
2023-03-23T19:12:29.187Z,99772.19
2023-03-23T19:15:32.243Z,99774.88
2023-03-23T19:18:35.728Z,99769.88
2023-03-23T19:21:40.414Z,99769.19
2023-03-23T19:24:43.625Z,99771.56
2023-03-23T19:28:30.711Z,99768.59
2023-03-23T19:31:11.010Z,99769.72
2023-03-23T19:34:15.474Z,99768.59
2023-03-23T19:37:23.855Z,99772.41
2023-03-23T19:40:50.233Z,99761.72
2023-03-23T19:43:50.654Z,99769.31
2023-03-23T19:46:54.207Z,99774.22
2023-03-23T19:50:00.022Z,99769.69
2023-03-23T19:53:03.003Z,99774.56
2023-03-23T19:56:12.580Z,99777.56
2023-03-23T19:59:16.375Z,99779.41
2023-03-23T20:02:19.856Z,99786.44
2023-03-23T20:05:23.188Z,99790.75
2023-03-23T20:08:26.504Z,99786.28
2023-03-23T20:11:30.550Z,99794.13
2023-03-23T20:14:34.402Z,99784.84
2023-03-23T20:17:37.704Z,99786.50
2023-03-23T20:20:41.089Z,99796.97
2023-03-23T20:23:45.157Z,99800.16
2023-03-23T20:26:48.314Z,99799.66
2023-03-23T20:29:53.497Z,99792.19
2023-03-23T20:33:00.634Z,99797.50
2023-03-23T20:36:05.360Z,99801.00
2023-03-23T20:39:14.425Z,99797.00
2023-03-23T20:42:17.737Z,99797.50
2023-03-23T20:45:21.163Z,99795.03
2023-03-23T20:48:30.541Z,99794.50
2023-03-23T20:51:33.651Z,99793.66
2023-03-23T20:54:38.030Z,99792.84
2023-03-23T20:57:42.155Z,99798.50
2023-03-23T21:00:47.088Z,99790.50
2023-03-23T21:03:54.161Z,99789.53
2023-03-23T21:06:57.752Z,99788.03
2023-03-23T21:10:00.789Z,99784.19
2023-03-23T21:13:04.577Z,99776.88
2023-03-23T21:16:07.632Z,99788.50
2023-03-23T21:19:11.766Z,99774.69
2023-03-23T21:22:14.786Z,99779.53
2023-03-23T21:25:18.128Z,99784.84
2023-03-23T21:28:20.602Z,99785.19
2023-03-23T21:31:25.557Z,99786.13
2023-03-23T21:34:28.248Z,99780.47
2023-03-23T21:37:31.619Z,99777.47
2023-03-23T21:40:34.555Z,99788.00
2023-03-23T21:43:38.197Z,99785.78
2023-03-23T21:46:42.080Z,99790.09
2023-03-23T21:49:46.032Z,99791.91
2023-03-23T21:52:51.003Z,99787.91
2023-03-23T21:55:56.381Z,99795.75
2023-03-23T21:59:01.202Z,99795.09
2023-03-23T22:02:04.264Z,99792.91
2023-03-23T22:05:07.606Z,99790.91
2023-03-23T22:08:10.573Z,99786.59
2023-03-23T22:11:19.729Z,99788.72
2023-03-23T22:14:22.511Z,99777.72
2023-03-23T22:17:25.758Z,99792.34
2023-03-23T22:20:29.474Z,99793.50
2023-03-23T22:23:32.713Z,99786.13
2023-03-23T22:26:35.533Z,99791.16
2023-03-23T22:29:38.417Z,99791.44
2023-03-23T22:32:41.280Z,99791.62
2023-03-23T22:35:46.091Z,99793.59
2023-03-23T22:38:50.382Z,99789.59
2023-03-23T22:41:53.414Z,99800.56
2023-03-23T22:44:56.219Z,99796.47
2023-03-23T22:47:59.865Z,99793.31
2023-03-23T22:51:03.725Z,99800.22
2023-03-23T22:54:06.643Z,99801.34
2023-03-23T22:57:09.313Z,99801.84
2023-03-23T23:00:17.389Z,99801.44
2023-03-23T23:03:20.057Z,99803.25
2023-03-23T23:06:24.835Z,99809.56
2023-03-23T23:09:27.553Z,99808.00
2023-03-23T23:12:31.781Z,99810.13
2023-03-23T23:15:36.033Z,99819.97
2023-03-23T23:18:40.171Z,99814.47
2023-03-23T23:21:42.808Z,99819.72
2023-03-23T23:24:46.264Z,99822.69
2023-03-23T23:27:48.954Z,99815.91
2023-03-23T23:30:52.289Z,99807.22
2023-03-23T23:33:56.780Z,99799.03
2023-03-23T23:36:59.718Z,99805.69
2023-03-23T23:40:02.790Z,99804.56
2023-03-23T23:43:05.866Z,99803.34
2023-03-23T23:46:08.514Z,99806.75
2023-03-23T23:49:11.505Z,99806.56
2023-03-23T23:52:14.362Z,99804.00
2023-03-23T23:55:17.610Z,99805.28
2023-03-23T23:58:20.873Z,99799.56
